createdAt,value
2023-01-28T00:01:59.585Z,102926.31
2023-01-28T00:04:27.232Z,102929.16
2023-01-28T00:06:54.399Z,102919.41
2023-01-28T00:09:21.569Z,102930.91
2023-01-28T00:11:48.728Z,102934.50
2023-01-28T00:14:15.975Z,102925.44
2023-01-28T00:16:43.285Z,102942.91
2023-01-28T00:19:10.687Z,102944.72
2023-01-28T00:21:37.838Z,102940.13
2023-01-28T00:24:07.045Z,102938.44
2023-01-28T00:26:34.254Z,102932.47
2023-01-28T00:29:01.809Z,102927.59
2023-01-28T00:31:29.094Z,102936.66
2023-01-28T00:33:57.442Z,102929.16
2023-01-28T00:36:26.307Z,102935.91
2023-01-28T00:38:59.537Z,102931.13
2023-01-28T00:41:29.912Z,102929.63
2023-01-28T00:43:58.054Z,102924.09
2023-01-28T00:46:28.469Z,102936.13
2023-01-28T00:48:56.012Z,102922.81
2023-01-28T00:51:23.323Z,102932.19
2023-01-28T00:53:50.500Z,102938.97
2023-01-28T00:56:19.457Z,102936.66
2023-01-28T00:58:47.693Z,102943.06
2023-01-28T01:01:17.854Z,102937.41
2023-01-28T01:03:45.662Z,102931.00
2023-01-28T01:06:14.900Z,102928.34
2023-01-28T01:08:43.030Z,102920.16
2023-01-28T01:11:11.769Z,102924.63
2023-01-28T01:13:39.508Z,102919.63
2023-01-28T01:16:12.941Z,102928.06
2023-01-28T01:18:43.086Z,102928.06
2023-01-28T01:21:15.726Z,102931.00
2023-01-28T01:23:43.666Z,102922.94
2023-01-28T01:26:11.611Z,102927.81
2023-01-28T01:28:38.931Z,102924.88
2023-01-28T01:31:09.080Z,102925.78
2023-01-28T01:33:36.423Z,102924.63
2023-01-28T01:36:03.760Z,102931.63
2023-01-28T01:38:30.988Z,102933.56
2023-01-28T01:41:00.286Z,102931.13
2023-01-28T01:43:54.537Z,102945.69
2023-01-28T01:46:27.679Z,102941.34
2023-01-28T01:48:58.039Z,102942.50
2023-01-28T01:51:30.985Z,102953.22
2023-01-28T01:53:59.409Z,102944.53
2023-01-28T01:56:32.965Z,102949.97
2023-01-28T01:59:01.504Z,102944.88
2023-01-28T02:01:31.918Z,102948.34
2023-01-28T02:04:09.048Z,102948.22
2023-01-28T02:06:37.784Z,102957.66
2023-01-28T02:09:22.316Z,102961.00
2023-01-28T02:11:50.778Z,102967.09
2023-01-28T02:14:30.711Z,102956.88
2023-01-28T02:17:01.475Z,102960.34
2023-01-28T02:19:43.021Z,102949.97
2023-01-28T02:22:31.637Z,102951.16
2023-01-28T02:25:43.982Z,102953.31
2023-01-28T02:28:31.948Z,102959.81
2023-01-28T02:31:09.812Z,102956.63
2023-01-28T02:34:10.921Z,102964.00
2023-01-28T02:37:03.074Z,102959.66
2023-01-28T02:39:37.597Z,102958.78
2023-01-28T02:42:13.613Z,102960.69
2023-01-28T02:44:40.999Z,102955.59
2023-01-28T02:47:31.302Z,102972.59
2023-01-28T02:50:02.123Z,102964.50
2023-01-28T02:53:12.401Z,102969.63
2023-01-28T02:55:50.098Z,102971.13
2023-01-28T02:58:22.889Z,102976.22
2023-01-28T03:00:56.661Z,102960.38
2023-01-28T03:03:33.499Z,102957.53
2023-01-28T03:06:09.992Z,102945.69
2023-01-28T03:09:03.013Z,102947.81
2023-01-28T03:12:03.560Z,102946.28
2023-01-28T03:14:52.364Z,102955.31
2023-01-28T03:17:48.937Z,102941.91
2023-01-28T03:20:34.711Z,102951.34
2023-01-28T03:23:26.456Z,102957.47
2023-01-28T03:26:17.310Z,102955.94
2023-01-28T03:29:05.120Z,102960.00
2023-01-28T03:31:54.141Z,102950.00
2023-01-28T03:34:41.156Z,102961.06
2023-01-28T03:37:09.803Z,102952.09
2023-01-28T03:39:38.009Z,102958.72
2023-01-28T03:42:06.775Z,102957.19
2023-01-28T03:44:49.214Z,102962.31
2023-01-28T03:47:16.957Z,102950.00
2023-01-28T03:49:49.007Z,102961.81
2023-01-28T03:52:19.893Z,102967.66
2023-01-28T03:54:48.460Z,102963.34
2023-01-28T03:57:16.973Z,102952.19
2023-01-28T03:59:44.120Z,102950.00
2023-01-28T04:02:15.355Z,102951.13
2023-01-28T04:04:42.785Z,102964.16
2023-01-28T04:07:10.931Z,102961.47
2023-01-28T04:09:38.038Z,102964.72
2023-01-28T04:12:05.665Z,102966.09
2023-01-28T04:14:33.028Z,102973.47
2023-01-28T04:17:00.284Z,102969.88
2023-01-28T04:19:28.361Z,102972.44
2023-01-28T04:21:56.937Z,102973.97
2023-01-28T04:24:24.371Z,102981.75
2023-01-28T04:26:51.607Z,102983.38
2023-01-28T04:29:18.715Z,102991.47
2023-01-28T04:31:45.790Z,102990.16
2023-01-28T04:34:12.963Z,102985.06
2023-01-28T04:36:40.029Z,102996.56
2023-01-28T04:39:07.092Z,102992.16
2023-01-28T04:41:34.145Z,102998.44
2023-01-28T04:44:01.168Z,102980.41
2023-01-28T04:46:28.297Z,102985.50
2023-01-28T04:48:55.396Z,102991.53
2023-01-28T04:51:22.494Z,102990.47
2023-01-28T04:53:49.509Z,102986.28
2023-01-28T04:56:16.623Z,102964.56
2023-01-28T04:58:43.705Z,102981.03
2023-01-28T05:01:11.196Z,102967.53
2023-01-28T05:03:38.285Z,102964.97
2023-01-28T05:06:05.668Z,102971.41
2023-01-28T05:08:32.704Z,102978.16
2023-01-28T05:10:59.783Z,102970.50
2023-01-28T05:13:26.951Z,102972.91
2023-01-28T05:15:54.186Z,102961.88
2023-01-28T05:18:21.887Z,102967.66
2023-01-28T05:20:49.152Z,102971.75
2023-01-28T05:23:16.218Z,102971.59
2023-01-28T05:25:43.259Z,102972.81
2023-01-28T05:28:10.793Z,102969.41
2023-01-28T05:30:39.045Z,102969.09
2023-01-28T05:33:06.172Z,102977.50
2023-01-28T05:35:33.684Z,102984.41
2023-01-28T05:38:00.825Z,102987.25
2023-01-28T05:40:27.866Z,102978.56
2023-01-28T05:42:54.974Z,102973.31
2023-01-28T05:45:22.268Z,102974.19
2023-01-28T05:47:49.332Z,102966.47
2023-01-28T05:50:16.967Z,102968.25
2023-01-28T05:52:45.408Z,102972.72
2023-01-28T05:55:12.574Z,102977.84
2023-01-28T05:57:39.964Z,102969.44
2023-01-28T06:00:07.790Z,102976.34
2023-01-28T06:02:34.897Z,102971.72
2023-01-28T06:05:02.471Z,102967.78
2023-01-28T06:07:29.594Z,102968.25
2023-01-28T06:09:56.741Z,102975.56
2023-01-28T06:12:23.810Z,102973.94
2023-01-28T06:14:50.859Z,102964.06
2023-01-28T06:17:17.990Z,102979.03
2023-01-28T06:19:45.092Z,102983.72
2023-01-28T06:22:12.194Z,102971.91
2023-01-28T06:24:39.235Z,102973.97
2023-01-28T06:27:06.258Z,102976.25
2023-01-28T06:29:33.409Z,102984.03
2023-01-28T06:32:00.561Z,102970.13
2023-01-28T06:34:30.667Z,102982.88
2023-01-28T06:36:58.039Z,102991.13
2023-01-28T06:39:27.121Z,102996.41
2023-01-28T06:41:54.209Z,103000.91
2023-01-28T06:44:22.384Z,102981.00
2023-01-28T06:46:49.745Z,102986.41
2023-01-28T06:49:16.933Z,103003.16
2023-01-28T06:51:44.018Z,102998.19
2023-01-28T06:54:11.335Z,103004.09
2023-01-28T06:56:38.394Z,103011.47
2023-01-28T06:59:05.535Z,103016.69
2023-01-28T07:01:33.208Z,103028.25
2023-01-28T07:04:00.385Z,103021.66
2023-01-28T07:06:27.604Z,103005.03
2023-01-28T07:08:54.687Z,103018.06
2023-01-28T07:11:22.371Z,103019.56
2023-01-28T07:13:49.539Z,103009.09
2023-01-28T07:16:17.475Z,103019.13
2023-01-28T07:18:44.569Z,103014.94
2023-01-28T07:21:11.631Z,103028.25
2023-01-28T07:23:40.050Z,103019.88
2023-01-28T07:26:07.206Z,103025.72
2023-01-28T07:28:34.308Z,103021.34
2023-01-28T07:31:01.733Z,103016.69
2023-01-28T07:33:28.869Z,103018.94
2023-01-28T07:35:56.208Z,103030.50
2023-01-28T07:38:23.249Z,103042.63
2023-01-28T07:40:50.886Z,103043.41
2023-01-28T07:43:18.035Z,103030.84
2023-01-28T07:45:47.594Z,103040.88
2023-01-28T07:48:15.527Z,103051.22
2023-01-28T07:50:42.930Z,103042.38
2023-01-28T07:53:12.381Z,103041.75
2023-01-28T07:55:39.471Z,103042.06
2023-01-28T07:58:08.547Z,103043.84
2023-01-28T08:00:37.167Z,103046.66
2023-01-28T08:03:13.375Z,103043.38
2023-01-28T08:05:47.242Z,103033.06
2023-01-28T08:08:14.923Z,103048.78
2023-01-28T08:10:43.957Z,103052.34
2023-01-28T08:13:12.718Z,103047.22
2023-01-28T08:15:41.159Z,103039.78
2023-01-28T08:18:10.287Z,103055.63
2023-01-28T08:20:37.500Z,103054.00
2023-01-28T08:23:09.283Z,103059.38
2023-01-28T08:25:36.541Z,103061.03
2023-01-28T08:28:05.492Z,103061.16
2023-01-28T08:30:33.273Z,103052.63
2023-01-28T08:33:00.497Z,103068.19
2023-01-28T08:35:28.456Z,103059.53
2023-01-28T08:37:56.143Z,103066.25
2023-01-28T08:40:23.366Z,103063.88
2023-01-28T08:42:52.355Z,103066.69
2023-01-28T08:45:22.542Z,103065.66
2023-01-28T08:47:55.760Z,103076.28
2023-01-28T08:50:24.441Z,103073.59
2023-01-28T08:53:02.586Z,103084.66
2023-01-28T08:55:30.022Z,103086.47
2023-01-28T08:57:58.663Z,103096.94
2023-01-28T09:00:25.892Z,103088.72
2023-01-28T09:02:53.811Z,103100.41
2023-01-28T09:05:24.593Z,103093.63
2023-01-28T09:07:52.204Z,103087.47
2023-01-28T09:10:20.855Z,103084.19
2023-01-28T09:12:48.122Z,103086.72
2023-01-28T09:15:15.330Z,103079.94
2023-01-28T09:17:42.457Z,103108.31
2023-01-28T09:20:11.125Z,103114.28
2023-01-28T09:22:38.240Z,103105.25
2023-01-28T09:25:05.787Z,103112.91
2023-01-28T09:27:32.807Z,103120.00
2023-01-28T09:29:59.923Z,103119.53
2023-01-28T09:32:27.193Z,103107.81
2023-01-28T09:34:54.268Z,103110.66
2023-01-28T09:37:24.462Z,103126.66
2023-01-28T09:39:52.002Z,103131.94
2023-01-28T09:42:27.997Z,103131.63
2023-01-28T09:45:07.537Z,103132.81
2023-01-28T09:47:48.415Z,103120.81
2023-01-28T09:50:23.591Z,103122.56
2023-01-28T09:52:53.783Z,103114.16
2023-01-28T09:55:32.819Z,103115.25
2023-01-28T09:57:59.973Z,103111.53
2023-01-28T10:00:53.606Z,103131.34
2023-01-28T10:03:32.841Z,103132.72
2023-01-28T10:06:38.897Z,103131.69
2023-01-28T10:09:16.867Z,103137.69
2023-01-28T10:12:02.564Z,103135.13
2023-01-28T10:15:00.097Z,103132.56
2023-01-28T10:17:33.972Z,103131.94
2023-01-28T10:20:16.167Z,103138.25
2023-01-28T10:22:48.899Z,103109.47
2023-01-28T10:25:19.751Z,103118.00
2023-01-28T10:27:49.469Z,103111.53
2023-01-28T10:30:23.094Z,103114.47
2023-01-28T10:32:52.865Z,103114.16
2023-01-28T10:35:22.019Z,103110.97
2023-01-28T10:37:49.857Z,103105.75
2023-01-28T10:40:19.896Z,103113.19
2023-01-28T10:42:47.066Z,103112.94
2023-01-28T10:45:57.475Z,103095.06
2023-01-28T10:48:29.730Z,103095.75
2023-01-28T10:51:05.652Z,103095.00
2023-01-28T10:53:41.043Z,103090.66
2023-01-28T12:41:09.817Z,103002.47
2023-01-28T12:44:21.201Z,103006.75
2023-01-28T12:47:04.146Z,103004.81
2023-01-28T12:49:50.927Z,102997.41
2023-01-28T12:52:31.006Z,102977.53
2023-01-28T12:55:06.881Z,102983.84
2023-01-28T12:57:36.610Z,102977.69
2023-01-28T13:00:06.963Z,102970.00
2023-01-28T13:02:41.547Z,102963.75
2023-01-28T13:05:11.362Z,102951.59
2023-01-28T13:07:53.852Z,102942.00
2023-01-28T13:10:27.702Z,102929.59
2023-01-28T13:12:56.828Z,102926.16
2023-01-28T13:15:25.132Z,102929.06
2023-01-28T13:18:00.474Z,102932.66
2023-01-28T13:20:30.879Z,102933.13
2023-01-28T13:23:03.412Z,102943.50
2023-01-28T13:25:34.315Z,102942.72
2023-01-28T13:28:06.600Z,102935.44
2023-01-28T13:30:36.487Z,102921.22
2023-01-28T13:33:06.665Z,102925.56
2023-01-28T13:35:36.647Z,102926.16
2023-01-28T13:38:10.271Z,102935.66
2023-01-28T13:40:41.788Z,102941.13
2023-01-28T13:43:37.456Z,102945.38
2023-01-28T13:46:14.208Z,102939.03
2023-01-28T13:48:54.730Z,102943.38
2023-01-28T13:51:32.262Z,102927.38
2023-01-28T13:54:08.427Z,102933.78
2023-01-28T13:56:51.354Z,102932.00
2023-01-28T13:59:46.167Z,102935.97
2023-01-28T14:02:31.292Z,102939.84
2023-01-28T14:05:36.289Z,102954.16
2023-01-28T14:08:24.794Z,102961.28
2023-01-28T14:11:10.339Z,102968.69
2023-01-28T14:13:53.770Z,102967.13
2023-01-28T14:16:44.418Z,102973.28
2023-01-28T14:19:14.888Z,102971.25
2023-01-28T14:27:17.744Z,102949.19
2023-01-28T14:33:33.173Z,102945.03
2023-01-28T14:36:00.227Z,102946.44
2023-01-28T14:38:28.581Z,102948.97
2023-01-28T14:40:55.864Z,102931.81
2023-01-28T14:43:26.573Z,102947.78
2023-01-28T14:46:08.756Z,102944.06
2023-01-28T14:48:50.713Z,102948.31
2023-01-28T14:51:36.259Z,102944.81
2023-01-28T14:54:21.802Z,102938.25
2023-01-28T14:57:13.906Z,102955.13
2023-01-28T14:59:54.387Z,102957.28
2023-01-28T15:02:27.073Z,102962.38
2023-01-28T15:04:55.053Z,102968.63
2023-01-28T15:08:23.196Z,102962.19
2023-01-28T15:10:53.925Z,102961.34
2023-01-28T15:13:27.668Z,102970.41
2023-01-28T15:16:00.443Z,102973.75
2023-01-28T15:18:30.307Z,102987.41
2023-01-28T15:20:58.797Z,102988.97
2023-01-28T15:23:44.120Z,102999.09
2023-01-28T15:26:14.985Z,102996.72
2023-01-28T15:28:44.246Z,102996.09
2023-01-28T15:31:22.536Z,102996.72
2023-01-28T15:34:04.566Z,102981.88
2023-01-28T15:36:32.081Z,102981.50
2023-01-28T15:38:59.105Z,102979.09
2023-01-28T15:41:35.004Z,102966.81
2023-01-28T15:44:03.866Z,102954.69
2023-01-28T15:46:31.432Z,102960.81
2023-01-28T15:49:03.890Z,102964.91
2023-01-28T15:51:33.819Z,102961.31
2023-01-28T15:54:05.469Z,102974.09
2023-01-28T15:56:32.941Z,102991.25
2023-01-28T15:59:33.029Z,102983.84
2023-01-28T16:02:25.879Z,102983.19
2023-01-28T16:05:04.619Z,102996.88
2023-01-28T16:07:33.762Z,102997.63
2023-01-28T16:10:03.443Z,102989.19
2023-01-28T16:12:30.508Z,102982.28
2023-01-28T16:15:02.315Z,102971.66
2023-01-28T16:17:31.827Z,102985.63
2023-01-28T16:20:02.729Z,102986.66
2023-01-28T16:22:36.711Z,102987.69
2023-01-28T16:25:27.074Z,102987.69
2023-01-28T16:27:54.111Z,102983.31
2023-01-28T16:30:21.428Z,102984.19
2023-01-28T16:32:48.814Z,102983.31
2023-01-28T16:35:20.035Z,102991.28
2023-01-28T16:37:48.441Z,102992.78
2023-01-28T16:40:19.393Z,102994.59
2023-01-28T16:42:48.601Z,102991.00
2023-01-28T16:45:24.179Z,102984.84
2023-01-28T16:47:52.591Z,102978.84
2023-01-28T16:50:21.953Z,102982.28
2023-01-28T16:52:51.407Z,102971.81
2023-01-28T16:55:21.426Z,102981.53
2023-01-28T16:57:52.902Z,102982.28
2023-01-28T17:04:12.384Z,102987.16
2023-01-28T17:06:43.519Z,102990.50
2023-01-28T17:09:13.039Z,102986.91
2023-01-28T17:11:40.953Z,102983.06
2023-01-28T17:14:08.850Z,102986.28
2023-01-28T17:16:36.383Z,102980.38
2023-01-28T17:19:03.777Z,102977.69
2023-01-28T17:21:31.223Z,102960.69
2023-01-28T17:24:00.896Z,102956.34
2023-01-28T17:26:29.075Z,102973.34
2023-01-28T17:28:56.344Z,102972.31
2023-01-28T17:31:23.881Z,102978.06
2023-01-28T17:33:57.421Z,102977.78
2023-01-28T17:36:26.282Z,102975.13
2023-01-28T17:38:54.318Z,102973.84
2023-01-28T17:41:21.645Z,102985.22
2023-01-28T17:43:54.465Z,102983.56
2023-01-28T17:46:23.602Z,102981.00
2023-01-28T17:48:50.996Z,102988.66
2023-01-28T17:51:18.675Z,102998.13
2023-01-28T17:56:23.555Z,103014.50
2023-01-28T17:58:55.056Z,103010.16
2023-01-28T18:01:23.580Z,103019.47
2023-01-28T18:03:51.102Z,103012.31
2023-01-28T18:06:18.512Z,103022.53
2023-01-28T18:08:45.686Z,103018.31
2023-01-28T18:11:15.784Z,103006.28
2023-01-28T18:13:43.550Z,103018.84
2023-01-28T18:23:40.016Z,103044.00
2023-01-28T18:26:08.567Z,103042.19
2023-01-28T18:28:35.976Z,103045.88
2023-01-28T18:31:07.326Z,103057.91
2023-01-28T18:33:34.434Z,103063.28
2023-01-28T18:36:01.834Z,103060.63
2023-01-28T18:38:28.853Z,103060.63
2023-01-28T18:40:56.230Z,103053.69
2023-01-28T18:43:23.527Z,103059.56
2023-01-28T18:45:52.119Z,103061.22
2023-01-28T18:48:19.539Z,103062.13
2023-01-28T18:50:50.467Z,103053.44
2023-01-28T18:53:17.512Z,103062.00
2023-01-28T18:55:45.085Z,103060.22
2023-01-28T18:58:12.217Z,103059.28
2023-01-28T19:00:39.716Z,103058.53
2023-01-28T19:03:07.053Z,103057.03
2023-01-28T19:05:38.529Z,103054.34
2023-01-28T19:08:09.551Z,103050.09
2023-01-28T19:10:37.290Z,103045.75
2023-01-28T19:13:04.338Z,103046.66
2023-01-28T19:15:31.400Z,103044.13
2023-01-28T19:17:58.477Z,103045.63
2023-01-28T19:20:25.503Z,103051.78
2023-01-28T19:22:52.741Z,103044.88
2023-01-28T19:25:19.772Z,103042.16
2023-01-28T19:27:46.796Z,103048.19
2023-01-28T19:30:13.875Z,103043.84
2023-01-28T19:32:41.139Z,103045.50
2023-01-28T19:35:08.289Z,103051.38
2023-01-28T19:37:35.925Z,103052.13
2023-01-28T19:40:03.040Z,103049.44
2023-01-28T19:42:30.058Z,103042.56
2023-01-28T19:44:57.124Z,103028.22
2023-01-28T19:47:24.231Z,103031.16
2023-01-28T19:49:51.347Z,103031.94
2023-01-28T19:52:18.465Z,103028.06
2023-01-28T19:54:47.168Z,103022.81
2023-01-28T19:57:14.304Z,103018.47
2023-01-28T19:59:41.405Z,103032.75
2023-01-28T20:02:09.833Z,103026.47
2023-01-28T20:04:38.298Z,103026.34
2023-01-28T20:07:07.995Z,103034.03
2023-01-28T20:09:35.174Z,103025.19
2023-01-28T20:12:02.864Z,103034.78
2023-01-28T20:14:30.214Z,103035.81
2023-01-28T20:16:57.741Z,103031.22
2023-01-28T20:19:24.849Z,103026.88
2023-01-28T20:21:52.467Z,103018.44
2023-01-28T20:24:19.542Z,103008.06
2023-01-28T20:26:46.649Z,103013.19
2023-01-28T20:29:18.041Z,103012.28
2023-01-28T20:31:46.022Z,103018.91
2023-01-28T20:34:19.216Z,103006.16
2023-01-28T20:36:46.303Z,103005.09
2023-01-28T20:41:54.135Z,103013.56
2023-01-28T20:44:21.287Z,103004.84
2023-01-28T20:46:48.532Z,103003.34
2023-01-28T20:49:15.664Z,103001.25
2023-01-28T20:51:42.807Z,103011.47
2023-01-28T20:54:10.807Z,103006.72
2023-01-28T20:56:37.872Z,103004.31
2023-01-28T20:59:08.257Z,103008.81
2023-01-28T21:01:37.254Z,103008.66
2023-01-28T21:04:05.955Z,103002.66
2023-01-28T21:06:33.997Z,102995.75
2023-01-28T21:09:01.612Z,103000.97
2023-01-28T21:11:28.864Z,103005.22
2023-01-28T21:13:57.031Z,103007.88
2023-01-28T21:16:24.440Z,103017.22
2023-01-28T21:18:51.923Z,103015.56
2023-01-28T21:21:21.780Z,103014.53
2023-01-28T21:23:49.619Z,103007.09
2023-01-28T21:26:17.241Z,103019.03
2023-01-28T21:28:44.943Z,103019.91
2023-01-28T21:31:23.664Z,103010.03
2023-01-28T21:33:52.654Z,103014.38
2023-01-28T21:36:19.987Z,103019.50
2023-01-28T21:38:55.435Z,103018.63
2023-01-28T21:41:22.970Z,103025.22
2023-01-28T21:43:53.915Z,103026.00
2023-01-28T21:46:23.304Z,103024.19
2023-01-28T21:48:57.902Z,103013.97
2023-01-28T21:52:01.582Z,103009.50
2023-01-28T21:54:28.594Z,103013.97
2023-01-28T21:56:55.639Z,103008.28
2023-01-28T21:59:28.706Z,103012.59
2023-01-28T22:02:00.995Z,103015.31
2023-01-28T22:04:37.186Z,103004.81
2023-01-28T22:07:07.005Z,103016.31
2023-01-28T22:09:34.665Z,103021.41
2023-01-28T22:12:03.624Z,103015.56
2023-01-28T22:14:31.845Z,103007.63
2023-01-28T22:16:58.912Z,103014.16
2023-01-28T22:19:26.154Z,103003.41
2023-01-28T22:21:53.235Z,103002.78
2023-01-28T22:24:22.682Z,103002.31
2023-01-28T22:26:50.725Z,103002.31
2023-01-28T22:29:19.515Z,102992.84
2023-01-28T22:31:48.306Z,102985.66
2023-01-28T22:34:16.334Z,102987.72
2023-01-28T22:36:43.897Z,102977.00
2023-01-28T22:39:17.072Z,102979.94
2023-01-28T22:41:45.141Z,102975.19
2023-01-28T22:44:12.530Z,102973.13
2023-01-28T22:46:40.069Z,102966.09
2023-01-28T22:49:07.191Z,102956.38
2023-01-28T22:51:36.041Z,102961.88
2023-01-28T22:54:03.482Z,102960.34
2023-01-28T22:56:31.324Z,102956.03
2023-01-28T22:59:01.594Z,102958.59
2023-01-28T23:01:29.219Z,102951.81
2023-01-28T23:03:56.700Z,102958.81
2023-01-28T23:06:27.088Z,102956.28
2023-01-28T23:08:54.466Z,102956.28
2023-01-28T23:11:28.641Z,102954.63
2023-01-28T23:14:17.174Z,102944.78
2023-01-28T23:17:03.033Z,102958.19
2023-01-28T23:19:49.154Z,102957.31
2023-01-28T23:22:40.214Z,102954.75
2023-01-28T23:25:07.707Z,102940.69
2023-01-28T23:27:34.939Z,102954.88
2023-01-28T23:30:02.372Z,102949.78
2023-01-28T23:32:29.596Z,102947.22
2023-01-28T23:34:57.231Z,102944.66
2023-01-28T23:37:24.347Z,102941.34
2023-01-28T23:39:51.421Z,102939.84
2023-01-28T23:42:23.603Z,102943.41
2023-01-28T23:44:50.730Z,102926.44
2023-01-28T23:47:18.716Z,102917.50
2023-01-28T23:49:46.133Z,102916.59
2023-01-28T23:52:13.201Z,102924.53
2023-01-28T23:54:40.860Z,102921.97
2023-01-28T23:57:08.519Z,102923.00
2023-01-28T23:59:36.845Z,102918.16
